createdAt,value
2018-08-09T00:00:56.182Z,19.94
2018-08-09T00:01:56.213Z,19.95
2018-08-09T00:02:56.254Z,19.95
2018-08-09T00:03:56.295Z,19.94
2018-08-09T00:04:56.336Z,19.83
2018-08-09T00:05:56.376Z,19.83
2018-08-09T00:06:56.419Z,19.80
2018-08-09T00:07:56.459Z,19.80
2018-08-09T00:08:56.501Z,19.83
2018-08-09T00:09:56.540Z,19.88
2018-08-09T00:10:56.585Z,19.94
2018-08-09T00:11:56.623Z,19.94
2018-08-09T00:12:56.663Z,20.03
2018-08-09T00:13:56.706Z,20.03
2018-08-09T00:14:56.745Z,20.03
2018-08-09T00:15:56.783Z,19.98
2018-08-09T00:16:56.825Z,19.99
2018-08-09T00:17:56.869Z,20.05
2018-08-09T00:18:56.911Z,19.95
2018-08-09T00:19:56.946Z,20.03
2018-08-09T00:20:56.988Z,19.94
2018-08-09T00:21:57.028Z,19.91
2018-08-09T00:22:57.068Z,19.95
2018-08-09T00:23:57.159Z,19.81
2018-08-09T00:24:57.151Z,19.86
2018-08-09T00:25:57.197Z,19.84
2018-08-09T00:26:57.231Z,19.86
2018-08-09T00:27:57.271Z,19.80
2018-08-09T00:28:57.314Z,19.78
2018-08-09T00:29:57.356Z,19.74
2018-08-09T00:30:57.393Z,19.78
2018-08-09T00:31:57.432Z,19.74
2018-08-09T00:32:57.481Z,19.76
2018-08-09T00:33:57.514Z,19.71
2018-08-09T00:34:57.555Z,19.78
2018-08-09T00:35:57.594Z,19.81
2018-08-09T00:36:57.686Z,19.73
2018-08-09T00:37:57.677Z,19.80
2018-08-09T00:38:57.717Z,19.63
2018-08-09T00:39:57.756Z,19.63
2018-08-09T00:40:57.805Z,19.66
2018-08-09T00:41:57.847Z,19.68
2018-08-09T00:42:57.878Z,19.66
2018-08-09T00:43:57.921Z,19.68
2018-08-09T00:44:57.960Z,19.66
2018-08-09T00:45:58.000Z,19.71
2018-08-09T00:46:58.040Z,19.69
2018-08-09T00:47:58.117Z,19.62
2018-08-09T00:48:58.139Z,19.56
2018-08-09T00:49:58.164Z,19.59
2018-08-09T00:50:58.205Z,19.48
2018-08-09T00:51:58.245Z,19.46
2018-08-09T00:52:58.284Z,19.54
2018-08-09T00:53:58.324Z,19.51
2018-08-09T00:54:58.363Z,19.46
2018-08-09T00:55:58.403Z,19.44
2018-08-09T00:56:58.446Z,19.47
2018-08-09T00:57:58.483Z,19.40
2018-08-09T00:58:58.525Z,19.37
2018-08-09T00:59:58.574Z,19.36
2018-08-09T01:00:58.607Z,19.37
2018-08-09T01:01:58.645Z,19.33
2018-08-09T01:02:58.687Z,19.26
2018-08-09T01:03:58.732Z,19.28
2018-08-09T01:04:58.768Z,19.28
2018-08-09T01:05:58.808Z,19.19
2018-08-09T01:06:58.866Z,19.19
2018-08-09T01:07:58.888Z,19.18
2018-08-09T01:08:58.930Z,19.21
2018-08-09T01:09:58.970Z,19.19
2018-08-09T01:10:59.011Z,19.22
2018-08-09T01:11:59.051Z,19.18
2018-08-09T01:12:59.091Z,19.19
2018-08-09T01:13:59.131Z,19.10
2018-08-09T01:14:59.176Z,19.18
2018-08-09T01:15:59.213Z,19.21
2018-08-09T01:16:59.251Z,19.22
2018-08-09T01:17:59.293Z,19.21
2018-08-09T01:18:59.337Z,19.10
2018-08-09T01:19:59.374Z,19.18
2018-08-09T01:20:59.423Z,19.18
2018-08-09T01:21:59.453Z,19.13
2018-08-09T01:22:59.494Z,19.07
2018-08-09T01:23:59.532Z,19.07
2018-08-09T01:24:59.575Z,18.99
2018-08-09T01:25:59.614Z,18.95
2018-08-09T01:26:59.702Z,18.91
2018-08-09T01:27:59.695Z,18.87
2018-08-09T01:28:59.733Z,18.92
2018-08-09T01:29:59.774Z,18.85
2018-08-09T01:30:59.814Z,18.92
2018-08-09T01:31:59.855Z,18.85
2018-08-09T01:32:59.934Z,18.91
2018-08-09T01:33:59.941Z,18.91
2018-08-09T01:34:59.975Z,18.82
2018-08-09T01:36:00.016Z,18.82
2018-08-09T01:37:00.056Z,18.81
2018-08-09T01:38:00.096Z,18.75
2018-08-09T01:39:00.182Z,18.81
2018-08-09T01:40:00.177Z,18.73
2018-08-09T01:41:00.218Z,18.75
2018-08-09T01:42:00.257Z,18.70
2018-08-09T01:43:00.297Z,18.75
2018-08-09T01:44:00.337Z,18.85
2018-08-09T01:45:00.379Z,18.73
2018-08-09T01:46:00.419Z,18.80
2018-08-09T01:47:00.460Z,18.82
2018-08-09T01:48:00.497Z,18.81
2018-08-09T01:49:00.540Z,18.76
2018-08-09T01:50:00.580Z,18.78
2018-08-09T01:51:00.622Z,18.84
2018-08-09T01:52:00.659Z,18.81
2018-08-09T01:53:00.700Z,18.87
2018-08-09T01:54:00.744Z,18.75
2018-08-09T01:55:00.780Z,18.80
2018-08-09T01:56:00.818Z,18.80
2018-08-09T01:57:00.878Z,18.84
2018-08-09T01:58:00.898Z,18.67
2018-08-09T01:59:00.939Z,18.73
2018-08-09T02:00:00.978Z,18.78
2018-08-09T02:01:01.045Z,18.85
2018-08-09T02:02:01.059Z,18.76
2018-08-09T02:03:01.101Z,18.82
2018-08-09T02:04:01.141Z,18.82
2018-08-09T02:05:01.226Z,18.85
2018-08-09T02:06:01.222Z,18.84
2018-08-09T02:07:01.260Z,18.84
2018-08-09T02:08:01.300Z,18.78
2018-08-09T02:09:01.341Z,18.85
2018-08-09T02:10:01.382Z,18.82
2018-08-09T02:11:01.422Z,18.85
2018-08-09T02:12:01.487Z,18.91
2018-08-09T02:13:01.501Z,18.81
2018-08-09T02:14:01.541Z,18.85
2018-08-09T02:15:01.589Z,18.73
2018-08-09T02:16:01.627Z,18.81
2018-08-09T02:17:01.663Z,18.87
2018-08-09T02:18:01.703Z,18.81
2018-08-09T02:19:01.744Z,18.84
2018-08-09T02:20:01.807Z,18.75
2018-08-09T02:21:01.823Z,18.73
2018-08-09T02:22:01.861Z,18.76
2018-08-09T02:23:01.902Z,18.76
2018-08-09T02:24:01.940Z,18.70
2018-08-09T02:25:01.979Z,18.72
2018-08-09T02:26:02.021Z,18.75
2018-08-09T02:27:02.060Z,18.69
2018-08-09T02:28:02.099Z,18.54
2018-08-09T02:29:02.140Z,18.57
2018-08-09T02:30:02.186Z,18.57
2018-08-09T02:31:02.222Z,18.70
2018-08-09T02:32:02.271Z,18.57
2018-08-09T02:33:02.301Z,18.55
2018-08-09T02:34:02.353Z,18.55
2018-08-09T02:35:02.379Z,18.57
2018-08-09T02:36:02.420Z,18.44
2018-08-09T02:37:02.458Z,18.51
2018-08-09T02:38:02.499Z,18.42
2018-08-09T02:39:02.540Z,18.45
2018-08-09T02:40:02.579Z,18.42
2018-08-09T02:41:02.620Z,18.39
2018-08-09T02:42:02.660Z,18.48
2018-08-09T02:43:02.700Z,18.44
2018-08-09T02:44:02.749Z,18.44
2018-08-09T02:45:02.784Z,18.35
2018-08-09T02:46:02.820Z,18.32
2018-08-09T02:47:02.860Z,18.30
2018-08-09T02:48:02.899Z,18.27
2018-08-09T02:49:02.940Z,18.37
2018-08-09T02:50:02.982Z,18.33
2018-08-09T02:51:03.019Z,18.41
2018-08-09T02:52:03.060Z,18.35
2018-08-09T02:53:03.097Z,18.26
2018-08-09T02:54:03.138Z,18.29
2018-08-09T02:55:03.180Z,18.32
2018-08-09T02:56:03.216Z,18.35
2018-08-09T02:57:03.272Z,18.29
2018-08-09T02:58:03.298Z,18.27
2018-08-09T02:59:03.338Z,18.27
2018-08-09T03:00:03.377Z,18.32
2018-08-09T03:01:03.421Z,18.29
2018-08-09T03:02:03.457Z,18.23
2018-08-09T03:03:03.495Z,18.27
2018-08-09T03:04:03.544Z,18.23
2018-08-09T03:05:03.579Z,18.30
2018-08-09T03:06:03.616Z,18.30
2018-08-09T03:07:03.656Z,18.26
2018-08-09T03:08:03.694Z,18.23
2018-08-09T03:09:03.742Z,18.30
2018-08-09T03:10:03.775Z,18.26
2018-08-09T03:11:03.822Z,18.21
2018-08-09T03:12:03.856Z,18.26
2018-08-09T03:13:03.896Z,18.18
2018-08-09T03:14:03.934Z,18.14
2018-08-09T03:15:03.976Z,18.18
2018-08-09T03:16:04.014Z,18.14
2018-08-09T03:17:04.103Z,18.05
2018-08-09T03:18:04.094Z,17.97
2018-08-09T03:19:04.136Z,17.97
2018-08-09T03:20:04.171Z,17.99
2018-08-09T03:21:04.220Z,18.03
2018-08-09T03:22:04.260Z,17.93
2018-08-09T03:23:04.292Z,17.93
2018-08-09T03:24:04.330Z,18.08
2018-08-09T03:25:04.378Z,18.02
2018-08-09T03:26:04.415Z,17.93
2018-08-09T03:27:04.452Z,17.92
2018-08-09T03:28:04.489Z,17.87
2018-08-09T03:29:04.529Z,18.02
2018-08-09T03:30:04.569Z,17.92
2018-08-09T03:31:04.608Z,17.92
2018-08-09T03:32:04.648Z,17.92
2018-08-09T03:33:04.696Z,17.90
2018-08-09T03:34:04.727Z,17.92
2018-08-09T03:35:04.768Z,18.00
2018-08-09T03:36:04.810Z,17.93
2018-08-09T03:37:04.876Z,17.92
2018-08-09T03:38:04.886Z,17.95
2018-08-09T03:39:04.925Z,17.89
2018-08-09T03:40:04.966Z,17.95
2018-08-09T03:41:05.007Z,17.97
2018-08-09T03:42:05.043Z,17.93
2018-08-09T03:43:05.085Z,17.92
2018-08-09T03:44:05.124Z,17.93
2018-08-09T03:45:05.164Z,17.92
2018-08-09T03:46:05.202Z,17.90
2018-08-09T03:47:05.244Z,17.92
2018-08-09T03:48:05.283Z,17.82
2018-08-09T03:49:05.322Z,17.90
2018-08-09T03:50:05.371Z,17.86
2018-08-09T03:51:05.404Z,17.90
2018-08-09T03:52:05.442Z,17.92
2018-08-09T03:53:05.481Z,17.86
2018-08-09T03:54:05.522Z,17.81
2018-08-09T03:55:05.569Z,17.82
2018-08-09T03:56:05.599Z,17.87
2018-08-09T03:57:05.641Z,17.96
2018-08-09T03:58:05.697Z,17.92
2018-08-09T03:59:05.719Z,17.95
2018-08-09T04:00:05.760Z,17.90
2018-08-09T04:01:05.807Z,17.90
2018-08-09T04:02:05.837Z,17.93
2018-08-09T04:03:05.877Z,17.97
2018-08-09T04:04:05.917Z,18.05
2018-08-09T04:05:05.957Z,17.92
2018-08-09T04:06:05.998Z,17.99
2018-08-09T04:07:06.037Z,17.93
2018-08-09T04:08:06.075Z,18.03
2018-08-09T04:09:06.115Z,18.03
2018-08-09T04:10:06.157Z,17.96
2018-08-09T04:11:06.195Z,17.97
2018-08-09T04:12:06.312Z,18.03
2018-08-09T04:13:06.274Z,18.02
2018-08-09T04:14:06.314Z,18.14
2018-08-09T04:15:06.354Z,18.14
2018-08-09T04:16:06.394Z,18.15
2018-08-09T04:17:06.437Z,18.15
2018-08-09T04:18:06.473Z,18.11
2018-08-09T04:19:06.516Z,18.11
2018-08-09T04:20:06.552Z,18.14
2018-08-09T04:21:06.642Z,18.18
2018-08-09T04:22:06.631Z,18.30
2018-08-09T04:23:06.673Z,18.25
2018-08-09T04:24:06.718Z,18.30
2018-08-09T04:25:06.750Z,18.36
2018-08-09T04:26:06.788Z,18.35
2018-08-09T04:27:06.830Z,18.37
2018-08-09T04:28:06.868Z,18.35
2018-08-09T04:29:06.908Z,18.47
2018-08-09T04:30:06.947Z,18.52
2018-08-09T04:31:06.987Z,18.42
2018-08-09T04:32:07.027Z,18.45
2018-08-09T04:33:07.065Z,18.50
2018-08-09T04:34:07.106Z,18.60
2018-08-09T04:35:07.149Z,18.54
2018-08-09T04:36:07.187Z,18.54
2018-08-09T04:37:07.228Z,18.65
2018-08-09T04:38:07.267Z,18.62
2018-08-09T04:39:07.306Z,18.65
2018-08-09T04:40:07.347Z,18.67
2018-08-09T04:41:07.386Z,18.72
2018-08-09T04:42:07.427Z,18.67
2018-08-09T04:43:07.466Z,18.67
2018-08-09T04:44:07.510Z,18.78
2018-08-09T04:45:07.544Z,18.73
2018-08-09T04:46:07.584Z,18.73
2018-08-09T04:47:07.675Z,18.88
2018-08-09T04:48:07.664Z,18.76
2018-08-09T04:49:07.744Z,18.85
2018-08-09T04:50:07.744Z,18.84
2018-08-09T04:51:07.785Z,18.85
2018-08-09T04:52:07.824Z,18.88
2018-08-09T04:53:07.864Z,18.94
2018-08-09T04:54:07.904Z,18.85
2018-08-09T04:55:07.946Z,18.90
2018-08-09T04:56:07.982Z,19.02
2018-08-09T04:57:08.023Z,18.95
2018-08-09T04:58:08.104Z,18.90
2018-08-09T04:59:08.101Z,19.04
2018-08-09T05:00:08.141Z,19.11
2018-08-09T05:01:08.190Z,19.06
2018-08-09T05:02:08.229Z,19.21
2018-08-09T05:03:08.263Z,19.21
2018-08-09T05:04:08.302Z,19.16
2018-08-09T05:05:08.344Z,19.21
2018-08-09T05:06:08.388Z,19.23
2018-08-09T05:07:08.424Z,19.32
2018-08-09T05:08:08.464Z,19.43
2018-08-09T05:09:08.503Z,19.37
2018-08-09T05:10:08.552Z,19.56
2018-08-09T05:11:08.593Z,19.62
2018-08-09T05:12:08.623Z,19.71
2018-08-09T05:13:08.665Z,19.87
2018-08-09T05:14:08.706Z,20.08
2018-08-09T05:15:08.746Z,20.08
2018-08-09T05:16:08.783Z,20.14
2018-08-09T05:17:08.828Z,20.26
2018-08-09T05:18:08.866Z,20.32
2018-08-09T05:19:08.905Z,20.33
2018-08-09T05:20:08.949Z,20.42
2018-08-09T05:21:08.986Z,20.51
2018-08-09T05:22:09.028Z,20.61
2018-08-09T05:23:09.106Z,20.55
2018-08-09T05:24:09.106Z,20.67
2018-08-09T05:25:09.163Z,20.62
2018-08-09T05:26:09.188Z,20.72
2018-08-09T05:27:09.233Z,20.80
2018-08-09T05:28:09.269Z,20.88
2018-08-09T05:29:09.316Z,20.92
2018-08-09T05:30:09.351Z,20.91
2018-08-09T05:31:09.406Z,21.06
2018-08-09T05:32:09.432Z,21.09
2018-08-09T05:33:09.473Z,21.14
2018-08-09T05:34:09.571Z,21.19
2018-08-09T05:35:09.561Z,21.24
2018-08-09T05:36:09.596Z,21.28
2018-08-09T05:37:09.638Z,21.32
2018-08-09T05:38:09.778Z,21.38
2018-08-09T05:39:09.718Z,21.49
2018-08-09T05:40:09.757Z,21.43
2018-08-09T05:41:09.799Z,21.46
2018-08-09T05:42:09.840Z,21.56
2018-08-09T05:43:09.881Z,21.68
2018-08-09T05:44:09.925Z,21.67
2018-08-09T05:45:09.984Z,21.88
2018-08-09T05:46:10.004Z,21.91
2018-08-09T05:47:10.046Z,21.94
2018-08-09T05:48:10.085Z,21.96
2018-08-09T05:49:10.135Z,22.22
2018-08-09T05:50:10.169Z,22.22
2018-08-09T05:51:10.211Z,22.22
2018-08-09T05:52:10.258Z,22.25
2018-08-09T05:53:10.331Z,22.37
2018-08-09T05:54:10.334Z,22.51
2018-08-09T05:55:10.376Z,22.52
2018-08-09T05:56:10.415Z,22.73
2018-08-09T05:57:10.458Z,22.72
2018-08-09T05:58:10.497Z,22.83
2018-08-09T05:59:10.540Z,22.86
2018-08-09T06:00:10.581Z,23.04
2018-08-09T06:01:10.623Z,23.04
2018-08-09T06:02:10.671Z,23.20
2018-08-09T06:03:10.706Z,23.23
2018-08-09T06:04:10.748Z,23.33
2018-08-09T06:05:10.789Z,23.28
2018-08-09T06:06:10.832Z,23.40
2018-08-09T06:07:10.873Z,23.36
2018-08-09T06:08:10.913Z,23.36
2018-08-09T06:09:10.959Z,23.35
2018-08-09T06:10:10.999Z,23.38
2018-08-09T06:11:11.041Z,23.43
2018-08-09T06:12:11.083Z,23.43
2018-08-09T06:13:11.124Z,23.55
2018-08-09T06:14:11.174Z,23.63
2018-08-09T06:15:11.214Z,23.69
2018-08-09T06:16:11.262Z,23.68
2018-08-09T06:17:11.293Z,23.72
2018-08-09T06:18:11.334Z,23.80
2018-08-09T06:19:11.380Z,23.84
2018-08-09T06:20:11.417Z,23.85
2018-08-09T06:21:11.460Z,23.88
2018-08-09T06:22:11.503Z,23.88
2018-08-09T06:23:11.546Z,24.03
2018-08-09T06:24:11.587Z,24.02
2018-08-09T06:25:11.785Z,24.12
2018-08-09T06:26:11.677Z,24.20
2018-08-09T06:27:11.714Z,24.25
2018-08-09T06:28:11.757Z,24.32
2018-08-09T06:29:11.798Z,24.31
2018-08-09T06:30:11.843Z,24.39
2018-08-09T06:31:11.891Z,24.42
2018-08-09T06:32:11.977Z,24.49
2018-08-09T06:33:11.970Z,24.64
2018-08-09T06:34:12.013Z,24.78
2018-08-09T06:35:12.058Z,24.87
2018-08-09T06:36:12.096Z,25.00
2018-08-09T06:37:12.138Z,25.17
2018-08-09T06:38:12.182Z,25.28
2018-08-09T06:39:12.227Z,25.50
2018-08-09T06:40:12.267Z,25.47
2018-08-09T06:41:12.359Z,25.61
2018-08-09T06:42:12.357Z,25.72
2018-08-09T06:43:12.397Z,25.75
2018-08-09T06:44:12.440Z,25.75
2018-08-09T06:45:12.483Z,25.85
2018-08-09T06:46:12.526Z,25.95
2018-08-09T06:47:12.572Z,25.85
2018-08-09T06:48:12.612Z,25.82
2018-08-09T06:49:12.663Z,25.88
2018-08-09T06:50:12.699Z,25.87
2018-08-09T06:51:12.747Z,25.87
2018-08-09T06:52:12.784Z,25.87
2018-08-09T06:53:12.827Z,25.88
2018-08-09T06:54:12.871Z,25.99
2018-08-09T06:55:12.914Z,26.13
2018-08-09T06:56:12.990Z,26.25
2018-08-09T06:57:13.000Z,26.36
2018-08-09T06:58:13.047Z,26.52
2018-08-09T06:59:13.089Z,26.69
2018-08-09T07:00:13.130Z,26.80
2018-08-09T07:01:13.174Z,26.95
2018-08-09T07:02:13.219Z,27.06
2018-08-09T07:03:13.262Z,27.31
2018-08-09T07:04:13.306Z,27.28
2018-08-09T07:05:13.350Z,27.27
2018-08-09T07:06:13.392Z,27.31
2018-08-09T07:07:13.438Z,27.25
2018-08-09T07:08:13.479Z,27.19
2018-08-09T07:09:13.524Z,27.19
2018-08-09T07:10:13.577Z,26.91
2018-08-09T07:11:13.613Z,26.66
2018-08-09T07:12:13.657Z,26.73
2018-08-09T07:13:13.702Z,26.75
2018-08-09T07:14:13.746Z,26.62
2018-08-09T07:15:13.794Z,26.69
2018-08-09T07:16:13.831Z,26.69
2018-08-09T07:17:13.877Z,26.76
2018-08-09T07:18:13.928Z,26.81
2018-08-09T07:19:13.963Z,26.80
2018-08-09T07:20:14.059Z,26.81
2018-08-09T07:21:14.053Z,26.92
2018-08-09T07:22:14.100Z,26.84
2018-08-09T07:23:14.140Z,26.91
2018-08-09T07:24:14.182Z,26.92
2018-08-09T07:25:14.229Z,26.94
2018-08-09T07:26:14.271Z,26.91
2018-08-09T07:27:14.315Z,26.95
2018-08-09T07:28:14.370Z,26.76
2018-08-09T07:29:14.402Z,26.62
2018-08-09T07:30:14.445Z,26.66
2018-08-09T07:31:14.490Z,26.45
2018-08-09T07:32:14.534Z,26.40
2018-08-09T07:33:14.578Z,26.43
2018-08-09T07:34:14.622Z,26.37
2018-08-09T07:35:14.667Z,26.43
2018-08-09T07:36:14.709Z,26.45
2018-08-09T07:37:14.762Z,26.44
2018-08-09T07:38:14.842Z,26.52
2018-08-09T07:39:14.849Z,26.63
2018-08-09T07:40:14.882Z,26.63
2018-08-09T07:41:14.926Z,26.66
2018-08-09T07:42:14.974Z,26.63
2018-08-09T07:43:15.013Z,26.62
2018-08-09T07:44:15.056Z,26.70
2018-08-09T07:45:15.100Z,26.75
2018-08-09T07:46:15.149Z,26.77
2018-08-09T07:47:15.186Z,26.91
2018-08-09T07:48:15.229Z,26.94
2018-08-09T07:49:15.275Z,27.09
2018-08-09T07:50:15.315Z,27.06
2018-08-09T07:51:15.378Z,27.19
2018-08-09T07:52:15.404Z,27.13
2018-08-09T07:53:15.447Z,27.27
2018-08-09T07:54:15.541Z,27.29
2018-08-09T07:55:15.535Z,27.41
2018-08-09T07:56:15.580Z,27.59
2018-08-09T07:57:15.623Z,27.59
2018-08-09T07:58:15.666Z,27.57
2018-08-09T07:59:15.711Z,27.63
2018-08-09T08:00:15.755Z,27.67
2018-08-09T08:01:15.799Z,27.69
2018-08-09T08:02:15.842Z,27.70
2018-08-09T08:03:15.894Z,27.82
2018-08-09T08:04:15.928Z,27.87
2018-08-09T08:05:15.972Z,27.75
2018-08-09T08:06:16.119Z,27.65
2018-08-09T08:07:16.061Z,27.72
2018-08-09T08:08:16.143Z,27.85
2018-08-09T08:09:16.159Z,27.92
2018-08-09T08:10:16.193Z,27.92
2018-08-09T08:11:16.238Z,28.07
2018-08-09T08:12:16.278Z,27.99
2018-08-09T08:13:16.324Z,28.00
2018-08-09T08:14:16.368Z,28.14
2018-08-09T08:15:16.413Z,28.02
2018-08-09T08:16:16.457Z,28.06
2018-08-09T08:17:16.507Z,28.19
2018-08-09T08:18:16.544Z,28.19
2018-08-09T08:19:16.587Z,28.27
2018-08-09T08:20:16.631Z,28.34
2018-08-09T08:21:16.676Z,28.40
2018-08-09T08:22:16.719Z,28.39
2018-08-09T08:23:16.776Z,28.46
2018-08-09T08:24:16.817Z,28.39
2018-08-09T08:25:16.853Z,28.43
2018-08-09T08:26:16.898Z,28.54
2018-08-09T08:27:16.943Z,28.34
2018-08-09T08:28:16.987Z,28.34
2018-08-09T08:29:17.038Z,28.39
2018-08-09T08:30:17.076Z,28.18
2018-08-09T08:31:17.118Z,28.27
2018-08-09T08:32:17.161Z,28.37
2018-08-09T08:33:17.206Z,28.46
2018-08-09T08:34:17.251Z,28.48
2018-08-09T08:35:17.309Z,28.52
2018-08-09T08:36:17.340Z,28.54
2018-08-09T08:37:17.385Z,28.59
2018-08-09T08:38:17.430Z,28.66
2018-08-09T08:39:17.473Z,28.59
2018-08-09T08:40:17.516Z,28.64
2018-08-09T08:41:17.635Z,28.70
2018-08-09T08:42:17.604Z,28.80
2018-08-09T08:43:17.650Z,29.00
2018-08-09T08:44:17.691Z,29.05
2018-08-09T08:45:17.742Z,29.12
2018-08-09T08:46:17.789Z,29.19
2018-08-09T08:47:17.840Z,29.33
2018-08-09T08:48:17.870Z,29.33
2018-08-09T08:49:17.914Z,29.23
2018-08-09T08:50:17.961Z,29.39
2018-08-09T08:51:18.005Z,29.30
2018-08-09T08:52:18.048Z,29.24
2018-08-09T08:53:18.182Z,29.23
2018-08-09T08:54:18.139Z,29.33
2018-08-09T08:55:18.242Z,29.18
2018-08-09T08:56:18.231Z,29.26
2018-08-09T08:57:18.276Z,29.24
2018-08-09T08:58:18.328Z,29.26
2018-08-09T08:59:18.364Z,29.30
2018-08-09T09:00:18.405Z,29.23
2018-08-09T09:01:18.452Z,29.34
2018-08-09T09:02:18.520Z,29.31
2018-08-09T09:03:18.549Z,29.02
2018-08-09T09:04:18.646Z,29.02
2018-08-09T09:05:18.633Z,29.04
2018-08-09T09:06:18.674Z,29.21
2018-08-09T09:07:18.718Z,29.15
2018-08-09T09:08:18.763Z,29.37
2018-08-09T09:09:18.807Z,29.30
2018-08-09T09:10:18.859Z,29.42
2018-08-09T09:11:18.901Z,29.41
2018-08-09T09:12:18.940Z,29.52
2018-08-09T09:13:18.984Z,29.39
2018-08-09T09:14:19.030Z,29.42
2018-08-09T09:15:19.077Z,29.34
2018-08-09T09:16:19.123Z,29.42
2018-08-09T09:17:19.165Z,29.45
2018-08-09T09:18:19.208Z,29.31
2018-08-09T09:19:19.306Z,29.33
2018-08-09T09:20:19.298Z,29.31
2018-08-09T09:21:19.345Z,29.46
2018-08-09T09:22:19.390Z,29.52
2018-08-09T09:23:19.434Z,29.57
2018-08-09T09:24:19.477Z,29.41
2018-08-09T09:25:19.524Z,29.57
2018-08-09T09:26:19.583Z,29.63
2018-08-09T09:27:19.613Z,29.64
2018-08-09T09:28:19.658Z,29.70
2018-08-09T09:29:19.703Z,29.73
2018-08-09T09:30:19.750Z,29.71
2018-08-09T09:31:19.793Z,29.73
2018-08-09T09:32:19.845Z,29.65
2018-08-09T09:33:19.884Z,29.76
2018-08-09T09:34:19.928Z,29.82
2018-08-09T09:35:19.972Z,29.83
2018-08-09T09:36:20.015Z,29.97
2018-08-09T09:37:20.063Z,30.10
2018-08-09T09:38:20.108Z,30.13
2018-08-09T09:39:20.160Z,30.39
2018-08-09T09:40:20.201Z,30.37
2018-08-09T09:41:20.281Z,30.53
2018-08-09T09:42:20.291Z,30.62
2018-08-09T09:43:20.335Z,30.64
2018-08-09T09:44:20.377Z,30.61
2018-08-09T09:45:20.421Z,30.70
2018-08-09T09:46:20.467Z,30.75
2018-08-09T09:47:20.513Z,30.73
2018-08-09T09:48:20.558Z,30.84
2018-08-09T09:49:20.602Z,30.77
2018-08-09T09:50:20.648Z,30.86
2018-08-09T09:51:20.693Z,30.83
2018-08-09T09:52:20.744Z,30.94
2018-08-09T09:53:20.783Z,30.84
2018-08-09T09:54:20.827Z,30.89
2018-08-09T09:55:21.026Z,30.99
2018-08-09T09:56:20.922Z,30.99
2018-08-09T09:57:20.965Z,30.98
2018-08-09T09:58:21.010Z,31.02
2018-08-09T09:59:21.056Z,31.06
2018-08-09T10:00:21.108Z,31.09
2018-08-09T10:01:21.144Z,31.09
2018-08-09T10:02:21.192Z,31.06
2018-08-09T10:03:21.244Z,31.16
2018-08-09T10:04:21.281Z,31.06
2018-08-09T10:05:21.326Z,31.16
2018-08-09T10:06:21.372Z,31.31
2018-08-09T10:07:21.449Z,31.31
2018-08-09T10:08:21.461Z,31.44
2018-08-09T10:09:21.609Z,31.54
2018-08-09T10:10:21.570Z,31.61
2018-08-09T10:11:21.600Z,31.73
2018-08-09T10:12:21.657Z,31.76
2018-08-09T10:13:21.700Z,31.76
2018-08-09T10:14:21.736Z,31.81
2018-08-09T10:15:21.790Z,31.99
2018-08-09T10:16:21.827Z,31.99
2018-08-09T10:17:21.874Z,31.80
2018-08-09T10:18:21.927Z,31.88
2018-08-09T10:19:21.965Z,31.91
2018-08-09T10:20:22.010Z,31.88
2018-08-09T10:21:22.056Z,31.88
2018-08-09T10:22:22.102Z,31.85
2018-08-09T10:23:22.155Z,31.86
2018-08-09T10:24:22.195Z,32.01
2018-08-09T10:25:22.240Z,31.88
2018-08-09T10:26:22.287Z,31.85
2018-08-09T10:27:22.341Z,31.89
2018-08-09T10:28:22.376Z,32.00
2018-08-09T10:29:22.424Z,32.03
2018-08-09T10:30:22.473Z,32.03
2018-08-09T10:31:22.515Z,31.93
2018-08-09T10:32:22.562Z,31.93
2018-08-09T10:33:22.606Z,31.93
2018-08-09T10:34:22.653Z,31.91
2018-08-09T10:35:22.741Z,31.92
2018-08-09T10:36:22.748Z,32.03
2018-08-09T10:37:22.792Z,32.10
2018-08-09T10:38:22.838Z,32.07
2018-08-09T10:39:22.892Z,32.19
2018-08-09T10:40:22.931Z,32.18
2018-08-09T10:41:22.977Z,32.18
2018-08-09T10:42:23.022Z,32.21
2018-08-09T10:43:23.069Z,32.10
2018-08-09T10:44:23.114Z,32.14
2018-08-09T10:45:23.161Z,32.14
2018-08-09T10:46:23.206Z,32.15
2018-08-09T10:47:23.255Z,32.23
2018-08-09T10:48:23.300Z,32.32
2018-08-09T10:49:23.348Z,32.25
2018-08-09T10:50:23.392Z,32.37
2018-08-09T10:51:23.452Z,32.29
2018-08-09T10:52:23.483Z,32.40
2018-08-09T10:53:23.529Z,32.32
2018-08-09T10:54:23.576Z,32.32
2018-08-09T10:55:23.621Z,32.25
2018-08-09T10:56:23.676Z,32.29
2018-08-09T10:57:23.716Z,32.33
2018-08-09T10:58:23.768Z,32.40
2018-08-09T10:59:23.806Z,32.56
2018-08-09T11:00:23.853Z,32.62
2018-08-09T11:01:23.899Z,32.67
2018-08-09T11:02:23.947Z,32.69
2018-08-09T11:03:23.992Z,32.81
2018-08-09T11:04:24.038Z,32.89
2018-08-09T11:05:24.085Z,32.93
2018-08-09T11:06:24.134Z,32.93
2018-08-09T11:07:24.230Z,32.96
2018-08-09T11:08:24.223Z,32.78
2018-08-09T11:09:24.272Z,32.82
2018-08-09T11:10:24.317Z,32.99
2018-08-09T11:11:24.365Z,32.92
2018-08-09T11:12:24.421Z,33.15
2018-08-09T11:13:24.459Z,33.06
2018-08-09T11:14:24.509Z,33.21
2018-08-09T11:15:24.553Z,33.41
2018-08-09T11:16:24.606Z,33.41
2018-08-09T11:17:24.645Z,33.45
2018-08-09T11:18:24.691Z,33.44
2018-08-09T11:19:24.754Z,33.44
2018-08-09T11:20:24.791Z,33.47
2018-08-09T11:21:24.840Z,33.69
2018-08-09T11:22:24.879Z,33.72
2018-08-09T11:23:24.926Z,33.79
2018-08-09T11:24:24.973Z,33.87
2018-08-09T11:25:25.021Z,33.88
2018-08-09T11:26:25.065Z,34.00
2018-08-09T11:27:25.114Z,34.12
2018-08-09T11:28:25.164Z,34.13
2018-08-09T11:29:25.225Z,34.21
2018-08-09T11:30:25.256Z,34.21
2018-08-09T11:31:25.301Z,34.24
2018-08-09T11:32:25.351Z,34.34
2018-08-09T11:33:25.395Z,34.39
2018-08-09T11:34:25.448Z,34.34
2018-08-09T11:35:25.493Z,34.49
2018-08-09T11:36:25.538Z,34.49
2018-08-09T11:37:25.638Z,34.59
2018-08-09T11:38:25.634Z,34.64
2018-08-09T11:39:25.680Z,34.56
2018-08-09T11:40:25.732Z,34.61
2018-08-09T11:41:25.778Z,34.44
2018-08-09T11:42:25.823Z,34.47
2018-08-09T11:43:25.872Z,34.28
2018-08-09T11:44:25.917Z,34.25
2018-08-09T11:45:25.968Z,33.98
2018-08-09T11:46:26.022Z,34.06
2018-08-09T11:47:26.068Z,34.00
2018-08-09T11:48:26.108Z,34.12
2018-08-09T11:49:26.202Z,34.30
2018-08-09T11:50:26.204Z,34.61
2018-08-09T11:51:26.251Z,34.77
2018-08-09T11:52:26.298Z,34.92
2018-08-09T11:53:26.347Z,35.07
2018-08-09T11:54:26.393Z,35.04
2018-08-09T11:55:26.455Z,35.18
2018-08-09T11:56:26.512Z,35.19
2018-08-09T11:57:26.547Z,35.18
2018-08-09T11:58:26.586Z,35.09
2018-08-09T11:59:26.634Z,34.91
2018-08-09T12:00:26.690Z,34.92
2018-08-09T12:01:26.781Z,34.81
2018-08-09T12:02:26.781Z,34.78
2018-08-09T12:03:26.828Z,34.82
2018-08-09T12:04:26.922Z,34.80
2018-08-09T12:05:26.922Z,34.85
2018-08-09T12:06:26.974Z,35.00
2018-08-09T12:07:27.022Z,35.10
2018-08-09T12:08:27.082Z,35.25
2018-08-09T12:09:27.152Z,35.33
2018-08-09T12:10:27.163Z,35.58
2018-08-09T12:11:27.215Z,35.72
2018-08-09T12:12:27.262Z,35.92
2018-08-09T12:13:27.327Z,35.84
2018-08-09T12:14:27.356Z,35.89
2018-08-09T12:15:27.413Z,35.89
2018-08-09T12:16:27.453Z,35.93
2018-08-09T12:17:27.502Z,35.84
2018-08-09T12:18:27.554Z,35.80
2018-08-09T12:19:27.604Z,35.85
2018-08-09T12:20:27.648Z,35.97
2018-08-09T12:21:27.798Z,35.99
2018-08-09T12:22:27.745Z,36.08
2018-08-09T12:23:27.794Z,36.27
2018-08-09T12:24:27.896Z,36.22
2018-08-09T12:25:27.894Z,36.34
2018-08-09T12:26:27.944Z,36.43
2018-08-09T12:27:27.992Z,36.32
2018-08-09T12:28:28.047Z,36.19
2018-08-09T12:29:28.090Z,36.20
2018-08-09T12:30:28.199Z,36.05
2018-08-09T12:31:28.202Z,35.99
2018-08-09T12:32:28.230Z,35.87
2018-08-09T12:33:28.288Z,35.75
2018-08-09T12:34:28.335Z,35.58
2018-08-09T12:35:28.380Z,35.65
2018-08-09T12:36:28.455Z,35.44
2018-08-09T12:37:28.477Z,35.41
2018-08-09T12:38:28.525Z,35.43
2018-08-09T12:39:28.580Z,35.55
2018-08-09T12:40:28.621Z,35.55
2018-08-09T12:41:28.685Z,35.59
2018-08-09T12:42:28.726Z,35.81
2018-08-09T12:43:28.778Z,35.87
2018-08-09T12:44:28.820Z,36.09
2018-08-09T12:45:28.923Z,35.99
2018-08-09T12:46:28.917Z,35.99
2018-08-09T12:47:28.964Z,35.80
2018-08-09T12:48:29.010Z,35.85
2018-08-09T12:49:29.128Z,35.75
2018-08-09T12:50:29.113Z,35.78
2018-08-09T12:51:29.164Z,35.72
2018-08-09T12:52:29.210Z,35.87
2018-08-09T12:53:29.266Z,35.92